PKWA TAF

81.5 °F / 27.5 °C
E at 20 MPH
76%
73.6°F / 23.1 °C
29.86" (1011 mb)
10 mile(s)
partly cloudy
2021.01.20 1220 UTC

PKWA TAF

2021/01/20 12:45
TAF PKWA 201138Z 2012/2112 07018KT P6SM FEW030 SCT040